sensor_id;sensor_type;location;lat;lon;timestamp;P1;durP1;ratioP1;P2;durP2;ratioP2
78778;SDS011;68121;52.404;5.318;2024-02-21T00:01:56;5.82;;;1.10;;
78778;SDS011;68121;52.404;5.318;2024-02-21T00:04:22;9.07;;;1.30;;
78778;SDS011;68121;52.404;5.318;2024-02-21T00:06:48;6.95;;;1.20;;
78778;SDS011;68121;52.404;5.318;2024-02-21T00:09:14;4.55;;;1.17;;
78778;SDS011;68121;52.404;5.318;2024-02-21T00:11:40;10.23;;;1.83;;
78778;SDS011;68121;52.404;5.318;2024-02-21T00:14:06;11.43;;;1.48;;
78778;SDS011;68121;52.404;5.318;2024-02-21T00:16:32;5.53;;;2.13;;
78778;SDS011;68121;52.404;5.318;2024-02-21T00:18:58;7.88;;;2.75;;
78778;SDS011;68121;52.404;5.318;2024-02-21T00:21:24;8.82;;;1.73;;
78778;SDS011;68121;52.404;5.318;2024-02-21T00:23:50;10.05;;;1.45;;
78778;SDS011;68121;52.404;5.318;2024-02-21T00:26:16;10.25;;;1.67;;
78778;SDS011;68121;52.404;5.318;2024-02-21T00:28:42;8.60;;;1.67;;
78778;SDS011;68121;52.404;5.318;2024-02-21T00:31:09;5.97;;;1.55;;
78778;SDS011;68121;52.404;5.318;2024-02-21T00:33:35;10.68;;;1.50;;
78778;SDS011;68121;52.404;5.318;2024-02-21T00:36:02;5.80;;;1.27;;
78778;SDS011;68121;52.404;5.318;2024-02-21T00:38:28;8.38;;;1.55;;
78778;SDS011;68121;52.404;5.318;2024-02-21T00:40:54;7.75;;;1.80;;
78778;SDS011;68121;52.404;5.318;2024-02-21T00:43:20;7.70;;;2.08;;
78778;SDS011;68121;52.404;5.318;2024-02-21T00:45:49;7.43;;;1.60;;
78778;SDS011;68121;52.404;5.318;2024-02-21T00:48:15;12.95;;;1.98;;
78778;SDS011;68121;52.404;5.318;2024-02-21T00:50:41;11.55;;;3.00;;
78778;SDS011;68121;52.404;5.318;2024-02-21T00:53:08;10.77;;;2.15;;
78778;SDS011;68121;52.404;5.318;2024-02-21T00:55:35;9.32;;;1.58;;
78778;SDS011;68121;52.404;5.318;2024-02-21T00:58:01;8.80;;;1.38;;
78778;SDS011;68121;52.404;5.318;2024-02-21T01:00:27;4.05;;;1.40;;
78778;SDS011;68121;52.404;5.318;2024-02-21T01:02:53;11.85;;;1.45;;
78778;SDS011;68121;52.404;5.318;2024-02-21T01:05:19;10.13;;;1.85;;
78778;SDS011;68121;52.404;5.318;2024-02-21T01:07:45;9.00;;;1.60;;
78778;SDS011;68121;52.404;5.318;2024-02-21T01:10:11;11.82;;;1.90;;
78778;SDS011;68121;52.404;5.318;2024-02-21T01:12:37;8.98;;;2.60;;
78778;SDS011;68121;52.404;5.318;2024-02-21T01:15:04;14.80;;;1.98;;
78778;SDS011;68121;52.404;5.318;2024-02-21T01:17:30;7.65;;;1.45;;
78778;SDS011;68121;52.404;5.318;2024-02-21T01:19:56;9.55;;;2.10;;
78778;SDS011;68121;52.404;5.318;2024-02-21T01:22:22;5.40;;;1.70;;
78778;SDS011;68121;52.404;5.318;2024-02-21T01:24:48;6.55;;;1.80;;
78778;SDS011;68121;52.404;5.318;2024-02-21T01:27:14;7.82;;;1.92;;
78778;SDS011;68121;52.404;5.318;2024-02-21T01:29:40;17.77;;;2.45;;
78778;SDS011;68121;52.404;5.318;2024-02-21T01:32:06;13.27;;;2.10;;
78778;SDS011;68121;52.404;5.318;2024-02-21T01:34:32;8.18;;;1.48;;
78778;SDS011;68121;52.404;5.318;2024-02-21T01:36:58;6.95;;;1.48;;
78778;SDS011;68121;52.404;5.318;2024-02-21T01:39:25;8.48;;;1.75;;
78778;SDS011;68121;52.404;5.318;2024-02-21T01:41:51;7.68;;;1.33;;
78778;SDS011;68121;52.404;5.318;2024-02-21T01:44:17;15.88;;;2.10;;
78778;SDS011;68121;52.404;5.318;2024-02-21T01:46:43;9.45;;;1.63;;
78778;SDS011;68121;52.404;5.318;2024-02-21T01:49:09;6.65;;;1.58;;
78778;SDS011;68121;52.404;5.318;2024-02-21T01:51:35;12.55;;;2.30;;
78778;SDS011;68121;52.404;5.318;2024-02-21T01:54:02;8.15;;;1.48;;
78778;SDS011;68121;52.404;5.318;2024-02-21T01:56:28;15.32;;;2.03;;
78778;SDS011;68121;52.404;5.318;2024-02-21T01:58:54;13.88;;;3.03;;
78778;SDS011;68121;52.404;5.318;2024-02-21T02:01:21;5.72;;;2.60;;
78778;SDS011;68121;52.404;5.318;2024-02-21T02:03:47;6.15;;;1.73;;
78778;SDS011;68121;52.404;5.318;2024-02-21T02:06:14;7.20;;;1.60;;
78778;SDS011;68121;52.404;5.318;2024-02-21T02:08:40;5.85;;;1.90;;
78778;SDS011;68121;52.404;5.318;2024-02-21T02:11:06;11.68;;;2.15;;
78778;SDS011;68121;52.404;5.318;2024-02-21T02:13:32;9.43;;;2.40;;
78778;SDS011;68121;52.404;5.318;2024-02-21T02:15:58;10.75;;;2.13;;
78778;SDS011;68121;52.404;5.318;2024-02-21T02:18:24;9.38;;;1.70;;
78778;SDS011;68121;52.404;5.318;2024-02-21T02:20:51;8.85;;;2.00;;
78778;SDS011;68121;52.404;5.318;2024-02-21T02:23:30;17.67;;;2.67;;
78778;SDS011;68121;52.404;5.318;2024-02-21T02:25:57;5.80;;;1.58;;
78778;SDS011;68121;52.404;5.318;2024-02-21T02:28:24;7.18;;;1.45;;
78778;SDS011;68121;52.404;5.318;2024-02-21T02:30:50;9.88;;;1.90;;
78778;SDS011;68121;52.404;5.318;2024-02-21T02:33:16;9.07;;;2.25;;
78778;SDS011;68121;52.404;5.318;2024-02-21T02:35:45;11.15;;;1.90;;
78778;SDS011;68121;52.404;5.318;2024-02-21T02:38:11;12.98;;;2.17;;
78778;SDS011;68121;52.404;5.318;2024-02-21T02:40:38;11.80;;;2.28;;
78778;SDS011;68121;52.404;5.318;2024-02-21T02:43:06;13.80;;;2.83;;
78778;SDS011;68121;52.404;5.318;2024-02-21T02:45:32;6.78;;;1.40;;
78778;SDS011;68121;52.404;5.318;2024-02-21T02:47:59;7.97;;;1.90;;
78778;SDS011;68121;52.404;5.318;2024-02-21T02:50:25;9.43;;;2.05;;
78778;SDS011;68121;52.404;5.318;2024-02-21T02:52:53;14.38;;;1.85;;
78778;SDS011;68121;52.404;5.318;2024-02-21T02:55:20;9.65;;;1.83;;
78778;SDS011;68121;52.404;5.318;2024-02-21T02:57:46;9.73;;;1.77;;
78778;SDS011;68121;52.404;5.318;2024-02-21T03:00:13;13.20;;;2.05;;
78778;SDS011;68121;52.404;5.318;2024-02-21T03:02:41;11.07;;;2.20;;
78778;SDS011;68121;52.404;5.318;2024-02-21T03:05:17;20.15;;;1.92;;
78778;SDS011;68121;52.404;5.318;2024-02-21T03:07:45;9.25;;;2.70;;
78778;SDS011;68121;52.404;5.318;2024-02-21T03:10:12;13.20;;;1.90;;
78778;SDS011;68121;52.404;5.318;2024-02-21T03:12:39;12.18;;;2.10;;
78778;SDS011;68121;52.404;5.318;2024-02-21T03:15:05;11.00;;;2.25;;
78778;SDS011;68121;52.404;5.318;2024-02-21T03:17:32;9.93;;;1.48;;
78778;SDS011;68121;52.404;5.318;2024-02-21T03:20:02;7.72;;;1.77;;
78778;SDS011;68121;52.404;5.318;2024-02-21T03:22:35;11.40;;;1.52;;
78778;SDS011;68121;52.404;5.318;2024-02-21T03:25:02;9.55;;;2.00;;
78778;SDS011;68121;52.404;5.318;2024-02-21T03:27:28;9.20;;;1.40;;
78778;SDS011;68121;52.404;5.318;2024-02-21T03:29:54;16.15;;;3.30;;
78778;SDS011;68121;52.404;5.318;2024-02-21T03:32:20;14.10;;;2.22;;
78778;SDS011;68121;52.404;5.318;2024-02-21T03:34:46;10.40;;;2.33;;
78778;SDS011;68121;52.404;5.318;2024-02-21T03:37:12;11.35;;;1.63;;
78778;SDS011;68121;52.404;5.318;2024-02-21T03:39:39;11.25;;;2.00;;
78778;SDS011;68121;52.404;5.318;2024-02-21T03:42:06;8.95;;;1.33;;
78778;SDS011;68121;52.404;5.318;2024-02-21T03:44:32;10.50;;;1.40;;
78778;SDS011;68121;52.404;5.318;2024-02-21T03:47:01;8.20;;;1.55;;
78778;SDS011;68121;52.404;5.318;2024-02-21T03:49:27;13.15;;;2.03;;
78778;SDS011;68121;52.404;5.318;2024-02-21T03:51:54;8.80;;;1.80;;
78778;SDS011;68121;52.404;5.318;2024-02-21T03:54:20;12.82;;;1.90;;
78778;SDS011;68121;52.404;5.318;2024-02-21T03:56:46;14.52;;;2.60;;
78778;SDS011;68121;52.404;5.318;2024-02-21T03:59:13;9.70;;;1.50;;
78778;SDS011;68121;52.404;5.318;2024-02-21T04:01:39;10.23;;;1.70;;
78778;SDS011;68121;52.404;5.318;2024-02-21T04:04:05;5.75;;;1.50;;
78778;SDS011;68121;52.404;5.318;2024-02-21T04:06:31;7.32;;;1.30;;
78778;SDS011;68121;52.404;5.318;2024-02-21T04:08:57;7.45;;;1.85;;
78778;SDS011;68121;52.404;5.318;2024-02-21T04:11:23;12.02;;;2.33;;
78778;SDS011;68121;52.404;5.318;2024-02-21T04:13:50;10.15;;;2.40;;
78778;SDS011;68121;52.404;5.318;2024-02-21T04:16:17;10.98;;;2.33;;
78778;SDS011;68121;52.404;5.318;2024-02-21T04:18:43;11.80;;;2.05;;
78778;SDS011;68121;52.404;5.318;2024-02-21T04:21:09;7.97;;;2.53;;
78778;SDS011;68121;52.404;5.318;2024-02-21T04:23:36;12.95;;;2.17;;
78778;SDS011;68121;52.404;5.318;2024-02-21T04:26:02;7.35;;;1.88;;
78778;SDS011;68121;52.404;5.318;2024-02-21T04:28:28;5.70;;;1.65;;
78778;SDS011;68121;52.404;5.318;2024-02-21T04:30:54;7.45;;;1.75;;
78778;SDS011;68121;52.404;5.318;2024-02-21T04:33:20;17.00;;;2.22;;
78778;SDS011;68121;52.404;5.318;2024-02-21T04:35:46;7.85;;;1.75;;
78778;SDS011;68121;52.404;5.318;2024-02-21T04:38:13;7.05;;;1.92;;
78778;SDS011;68121;52.404;5.318;2024-02-21T04:40:40;5.40;;;1.60;;
78778;SDS011;68121;52.404;5.318;2024-02-21T04:43:06;9.75;;;2.03;;
78778;SDS011;68121;52.404;5.318;2024-02-21T04:45:32;10.48;;;2.17;;
78778;SDS011;68121;52.404;5.318;2024-02-21T04:47:58;4.75;;;1.92;;
78778;SDS011;68121;52.404;5.318;2024-02-21T04:50:24;8.43;;;2.22;;
78778;SDS011;68121;52.404;5.318;2024-02-21T04:52:50;8.88;;;1.95;;
78778;SDS011;68121;52.404;5.318;2024-02-21T04:55:16;9.32;;;2.22;;
78778;SDS011;68121;52.404;5.318;2024-02-21T04:57:42;8.82;;;2.40;;
78778;SDS011;68121;52.404;5.318;2024-02-21T05:00:08;6.60;;;2.00;;
78778;SDS011;68121;52.404;5.318;2024-02-21T05:02:35;10.43;;;2.05;;
78778;SDS011;68121;52.404;5.318;2024-02-21T05:05:01;13.13;;;2.17;;
78778;SDS011;68121;52.404;5.318;2024-02-21T05:07:27;7.38;;;1.95;;
78778;SDS011;68121;52.404;5.318;2024-02-21T05:09:54;4.82;;;1.50;;
78778;SDS011;68121;52.404;5.318;2024-02-21T05:12:20;10.00;;;2.65;;
78778;SDS011;68121;52.404;5.318;2024-02-21T05:14:46;9.40;;;2.55;;
78778;SDS011;68121;52.404;5.318;2024-02-21T05:17:12;7.68;;;2.83;;
78778;SDS011;68121;52.404;5.318;2024-02-21T05:19:38;8.85;;;2.55;;
78778;SDS011;68121;52.404;5.318;2024-02-21T05:22:04;15.73;;;2.53;;
78778;SDS011;68121;52.404;5.318;2024-02-21T05:24:30;7.38;;;2.90;;
78778;SDS011;68121;52.404;5.318;2024-02-21T05:26:57;13.75;;;2.83;;
78778;SDS011;68121;52.404;5.318;2024-02-21T05:29:23;8.50;;;3.40;;
78778;SDS011;68121;52.404;5.318;2024-02-21T05:34:18;11.93;;;2.95;;
78778;SDS011;68121;52.404;5.318;2024-02-21T05:36:45;11.25;;;3.13;;
78778;SDS011;68121;52.404;5.318;2024-02-21T05:39:11;7.35;;;2.88;;
78778;SDS011;68121;52.404;5.318;2024-02-21T05:41:38;10.93;;;3.70;;
78778;SDS011;68121;52.404;5.318;2024-02-21T05:44:04;7.63;;;3.28;;
78778;SDS011;68121;52.404;5.318;2024-02-21T05:46:30;9.38;;;3.35;;
78778;SDS011;68121;52.404;5.318;2024-02-21T05:48:56;10.20;;;3.83;;
78778;SDS011;68121;52.404;5.318;2024-02-21T05:51:22;12.90;;;4.18;;
78778;SDS011;68121;52.404;5.318;2024-02-21T05:53:48;10.52;;;4.82;;
78778;SDS011;68121;52.404;5.318;2024-02-21T05:56:15;6.13;;;3.50;;
78778;SDS011;68121;52.404;5.318;2024-02-21T05:58:41;12.02;;;4.93;;
78778;SDS011;68121;52.404;5.318;2024-02-21T06:01:07;10.07;;;4.47;;
78778;SDS011;68121;52.404;5.318;2024-02-21T06:03:33;9.95;;;4.25;;
78778;SDS011;68121;52.404;5.318;2024-02-21T06:05:59;10.07;;;4.65;;
78778;SDS011;68121;52.404;5.318;2024-02-21T06:08:26;8.25;;;5.35;;
78778;SDS011;68121;52.404;5.318;2024-02-21T06:10:52;11.52;;;5.25;;
78778;SDS011;68121;52.404;5.318;2024-02-21T06:13:21;14.07;;;5.18;;
78778;SDS011;68121;52.404;5.318;2024-02-21T06:15:49;9.60;;;5.38;;
78778;SDS011;68121;52.404;5.318;2024-02-21T06:18:18;13.38;;;4.80;;
78778;SDS011;68121;52.404;5.318;2024-02-21T06:20:45;11.07;;;5.22;;
78778;SDS011;68121;52.404;5.318;2024-02-21T06:23:12;10.32;;;4.65;;
78778;SDS011;68121;52.404;5.318;2024-02-21T06:25:39;8.98;;;5.15;;
78778;SDS011;68121;52.404;5.318;2024-02-21T06:28:05;10.05;;;5.38;;
78778;SDS011;68121;52.404;5.318;2024-02-21T06:30:31;13.70;;;5.03;;
78778;SDS011;68121;52.404;5.318;2024-02-21T06:32:57;7.55;;;4.03;;
78778;SDS011;68121;52.404;5.318;2024-02-21T06:35:24;8.90;;;4.95;;
78778;SDS011;68121;52.404;5.318;2024-02-21T06:37:51;15.45;;;5.70;;
78778;SDS011;68121;52.404;5.318;2024-02-21T06:40:17;9.73;;;5.57;;
78778;SDS011;68121;52.404;5.318;2024-02-21T06:42:46;7.05;;;4.68;;
78778;SDS011;68121;52.404;5.318;2024-02-21T06:45:12;9.65;;;4.80;;
78778;SDS011;68121;52.404;5.318;2024-02-21T06:47:38;7.82;;;4.18;;
78778;SDS011;68121;52.404;5.318;2024-02-21T06:50:04;9.25;;;4.50;;
78778;SDS011;68121;52.404;5.318;2024-02-21T06:52:30;10.18;;;4.18;;
78778;SDS011;68121;52.404;5.318;2024-02-21T06:54:57;13.35;;;5.38;;
78778;SDS011;68121;52.404;5.318;2024-02-21T06:57:23;9.05;;;5.18;;
78778;SDS011;68121;52.404;5.318;2024-02-21T06:59:49;10.55;;;5.32;;
78778;SDS011;68121;52.404;5.318;2024-02-21T07:02:15;10.65;;;5.57;;
78778;SDS011;68121;52.404;5.318;2024-02-21T07:04:41;11.13;;;5.07;;
78778;SDS011;68121;52.404;5.318;2024-02-21T07:07:07;9.82;;;5.25;;
78778;SDS011;68121;52.404;5.318;2024-02-21T07:09:33;11.38;;;5.43;;
78778;SDS011;68121;52.404;5.318;2024-02-21T07:11:59;10.45;;;5.07;;
78778;SDS011;68121;52.404;5.318;2024-02-21T07:14:27;9.93;;;5.28;;
78778;SDS011;68121;52.404;5.318;2024-02-21T07:16:53;13.18;;;5.38;;
78778;SDS011;68121;52.404;5.318;2024-02-21T07:19:20;16.33;;;4.88;;
78778;SDS011;68121;52.404;5.318;2024-02-21T07:21:46;16.50;;;6.40;;
78778;SDS011;68121;52.404;5.318;2024-02-21T07:24:12;11.00;;;5.40;;
78778;SDS011;68121;52.404;5.318;2024-02-21T07:26:41;13.90;;;5.95;;
78778;SDS011;68121;52.404;5.318;2024-02-21T07:29:08;11.52;;;5.65;;
78778;SDS011;68121;52.404;5.318;2024-02-21T07:31:40;12.55;;;5.93;;
78778;SDS011;68121;52.404;5.318;2024-02-21T07:34:07;11.40;;;4.93;;
78778;SDS011;68121;52.404;5.318;2024-02-21T07:36:33;19.80;;;6.05;;
78778;SDS011;68121;52.404;5.318;2024-02-21T07:38:59;15.38;;;5.75;;
78778;SDS011;68121;52.404;5.318;2024-02-21T07:41:26;7.55;;;4.68;;
78778;SDS011;68121;52.404;5.318;2024-02-21T07:43:52;11.00;;;5.18;;
78778;SDS011;68121;52.404;5.318;2024-02-21T07:46:18;10.50;;;5.78;;
78778;SDS011;68121;52.404;5.318;2024-02-21T07:48:47;11.43;;;4.97;;
78778;SDS011;68121;52.404;5.318;2024-02-21T07:51:14;10.13;;;4.80;;
78778;SDS011;68121;52.404;5.318;2024-02-21T07:53:42;12.35;;;5.90;;
78778;SDS011;68121;52.404;5.318;2024-02-21T07:56:10;14.00;;;5.65;;
78778;SDS011;68121;52.404;5.318;2024-02-21T07:58:37;14.15;;;5.07;;
78778;SDS011;68121;52.404;5.318;2024-02-21T08:01:03;11.30;;;5.28;;
78778;SDS011;68121;52.404;5.318;2024-02-21T08:03:29;13.38;;;6.18;;
78778;SDS011;68121;52.404;5.318;2024-02-21T08:05:55;11.07;;;5.72;;
78778;SDS011;68121;52.404;5.318;2024-02-21T08:08:21;12.50;;;5.90;;
78778;SDS011;68121;52.404;5.318;2024-02-21T08:10:48;15.65;;;5.78;;
78778;SDS011;68121;52.404;5.318;2024-02-21T08:13:14;11.98;;;5.13;;
78778;SDS011;68121;52.404;5.318;2024-02-21T08:15:41;15.18;;;6.07;;
78778;SDS011;68121;52.404;5.318;2024-02-21T08:18:07;13.95;;;5.45;;
78778;SDS011;68121;52.404;5.318;2024-02-21T08:20:33;12.23;;;6.15;;
78778;SDS011;68121;52.404;5.318;2024-02-21T08:23:00;12.13;;;5.60;;
78778;SDS011;68121;52.404;5.318;2024-02-21T08:25:26;11.55;;;5.60;;
78778;SDS011;68121;52.404;5.318;2024-02-21T08:27:57;8.52;;;4.93;;
78778;SDS011;68121;52.404;5.318;2024-02-21T08:30:24;11.35;;;4.97;;
78778;SDS011;68121;52.404;5.318;2024-02-21T08:32:50;10.82;;;5.22;;
78778;SDS011;68121;52.404;5.318;2024-02-21T08:35:16;14.35;;;5.60;;
78778;SDS011;68121;52.404;5.318;2024-02-21T08:37:47;11.00;;;5.28;;
78778;SDS011;68121;52.404;5.318;2024-02-21T08:40:14;10.70;;;5.72;;
78778;SDS011;68121;52.404;5.318;2024-02-21T08:42:43;15.32;;;5.90;;
78778;SDS011;68121;52.404;5.318;2024-02-21T08:45:09;14.90;;;5.90;;
78778;SDS011;68121;52.404;5.318;2024-02-21T08:47:35;9.43;;;5.50;;
78778;SDS011;68121;52.404;5.318;2024-02-21T08:50:04;14.10;;;5.72;;
78778;SDS011;68121;52.404;5.318;2024-02-21T08:52:31;13.88;;;5.88;;
78778;SDS011;68121;52.404;5.318;2024-02-21T08:54:57;12.43;;;5.88;;
78778;SDS011;68121;52.404;5.318;2024-02-21T08:57:23;15.32;;;5.43;;
78778;SDS011;68121;52.404;5.318;2024-02-21T08:59:49;11.35;;;5.10;;
78778;SDS011;68121;52.404;5.318;2024-02-21T09:02:15;16.13;;;6.55;;
78778;SDS011;68121;52.404;5.318;2024-02-21T09:04:42;12.43;;;5.82;;
78778;SDS011;68121;52.404;5.318;2024-02-21T09:07:09;14.75;;;6.13;;
78778;SDS011;68121;52.404;5.318;2024-02-21T09:09:36;15.00;;;6.38;;
78778;SDS011;68121;52.404;5.318;2024-02-21T09:12:05;8.52;;;4.15;;
78778;SDS011;68121;52.404;5.318;2024-02-21T09:14:32;9.52;;;5.70;;
78778;SDS011;68121;52.404;5.318;2024-02-21T09:16:59;12.98;;;6.50;;
78778;SDS011;68121;52.404;5.318;2024-02-21T09:19:25;18.00;;;7.30;;
78778;SDS011;68121;52.404;5.318;2024-02-21T09:21:51;11.27;;;5.72;;
78778;SDS011;68121;52.404;5.318;2024-02-21T09:24:17;10.52;;;5.32;;
78778;SDS011;68121;52.404;5.318;2024-02-21T09:26:43;14.93;;;6.68;;
78778;SDS011;68121;52.404;5.318;2024-02-21T09:29:09;15.80;;;6.28;;
78778;SDS011;68121;52.404;5.318;2024-02-21T09:31:35;15.07;;;6.40;;
78778;SDS011;68121;52.404;5.318;2024-02-21T09:34:02;14.05;;;6.22;;
78778;SDS011;68121;52.404;5.318;2024-02-21T09:36:28;16.95;;;7.32;;
78778;SDS011;68121;52.404;5.318;2024-02-21T09:38:54;15.10;;;7.10;;
78778;SDS011;68121;52.404;5.318;2024-02-21T09:41:26;13.75;;;7.32;;
78778;SDS011;68121;52.404;5.318;2024-02-21T09:43:53;16.20;;;7.93;;
78778;SDS011;68121;52.404;5.318;2024-02-21T09:46:21;16.80;;;7.05;;
78778;SDS011;68121;52.404;5.318;2024-02-21T09:51:56;11.82;;;6.75;;
78778;SDS011;68121;52.404;5.318;2024-02-21T09:54:24;15.73;;;7.18;;
78778;SDS011;68121;52.404;5.318;2024-02-21T09:56:51;12.35;;;7.10;;
78778;SDS011;68121;52.404;5.318;2024-02-21T09:59:17;10.45;;;5.47;;
78778;SDS011;68121;52.404;5.318;2024-02-21T10:01:43;15.55;;;6.72;;
78778;SDS011;68121;52.404;5.318;2024-02-21T10:04:10;11.85;;;6.38;;
78778;SDS011;68121;52.404;5.318;2024-02-21T10:06:36;13.25;;;6.50;;
78778;SDS011;68121;52.404;5.318;2024-02-21T10:09:08;13.85;;;6.88;;
78778;SDS011;68121;52.404;5.318;2024-02-21T10:11:34;12.18;;;6.22;;
78778;SDS011;68121;52.404;5.318;2024-02-21T10:14:06;14.98;;;6.10;;
78778;SDS011;68121;52.404;5.318;2024-02-21T10:16:32;12.63;;;6.75;;
78778;SDS011;68121;52.404;5.318;2024-02-21T10:18:59;8.13;;;4.88;;
78778;SDS011;68121;52.404;5.318;2024-02-21T10:21:25;10.98;;;5.25;;
78778;SDS011;68121;52.404;5.318;2024-02-21T10:23:51;10.45;;;5.85;;
78778;SDS011;68121;52.404;5.318;2024-02-21T10:26:18;13.35;;;5.55;;
78778;SDS011;68121;52.404;5.318;2024-02-21T10:28:45;8.25;;;4.95;;
78778;SDS011;68121;52.404;5.318;2024-02-21T10:31:25;9.20;;;5.13;;
78778;SDS011;68121;52.404;5.318;2024-02-21T10:33:54;10.25;;;4.43;;
78778;SDS011;68121;52.404;5.318;2024-02-21T10:36:30;7.90;;;3.42;;
78778;SDS011;68121;52.404;5.318;2024-02-21T10:38:56;7.00;;;4.00;;
78778;SDS011;68121;52.404;5.318;2024-02-21T10:41:23;8.10;;;4.68;;
78778;SDS011;68121;52.404;5.318;2024-02-21T10:43:53;12.48;;;4.75;;
78778;SDS011;68121;52.404;5.318;2024-02-21T10:46:20;9.95;;;4.45;;
78778;SDS011;68121;52.404;5.318;2024-02-21T10:48:48;7.35;;;3.78;;
78778;SDS011;68121;52.404;5.318;2024-02-21T10:51:21;8.38;;;4.70;;
78778;SDS011;68121;52.404;5.318;2024-02-21T10:56:31;6.90;;;3.90;;
78778;SDS011;68121;52.404;5.318;2024-02-21T10:59:02;7.85;;;3.28;;
78778;SDS011;68121;52.404;5.318;2024-02-21T11:01:29;6.25;;;3.53;;
78778;SDS011;68121;52.404;5.318;2024-02-21T11:04:07;7.43;;;3.50;;
78778;SDS011;68121;52.404;5.318;2024-02-21T11:06:36;5.72;;;3.15;;
78778;SDS011;68121;52.404;5.318;2024-02-21T11:11:34;6.88;;;3.75;;
78778;SDS011;68121;52.404;5.318;2024-02-21T11:14:04;6.40;;;3.08;;
78778;SDS011;68121;52.404;5.318;2024-02-21T11:16:34;5.85;;;2.63;;
78778;SDS011;68121;52.404;5.318;2024-02-21T11:19:08;7.38;;;3.17;;
78778;SDS011;68121;52.404;5.318;2024-02-21T11:21:36;4.28;;;2.53;;
78778;SDS011;68121;52.404;5.318;2024-02-21T11:24:03;4.70;;;2.88;;
78778;SDS011;68121;52.404;5.318;2024-02-21T11:26:30;6.00;;;3.42;;
78778;SDS011;68121;52.404;5.318;2024-02-21T11:28:59;4.82;;;2.28;;
78778;SDS011;68121;52.404;5.318;2024-02-21T11:31:39;6.13;;;2.75;;
78778;SDS011;68121;52.404;5.318;2024-02-21T11:34:09;6.28;;;2.85;;
78778;SDS011;68121;52.404;5.318;2024-02-21T11:36:36;5.50;;;2.88;;
78778;SDS011;68121;52.404;5.318;2024-02-21T11:39:17;4.82;;;3.10;;
78778;SDS011;68121;52.404;5.318;2024-02-21T11:42:01;5.35;;;2.70;;
78778;SDS011;68121;52.404;5.318;2024-02-21T11:44:27;7.50;;;3.08;;
78778;SDS011;68121;52.404;5.318;2024-02-21T11:46:53;8.90;;;2.67;;
78778;SDS011;68121;52.404;5.318;2024-02-21T11:49:20;4.00;;;2.67;;
78778;SDS011;68121;52.404;5.318;2024-02-21T11:51:46;7.97;;;3.13;;
78778;SDS011;68121;52.404;5.318;2024-02-21T11:54:14;4.22;;;2.65;;
78778;SDS011;68121;52.404;5.318;2024-02-21T11:56:42;7.43;;;3.45;;
78778;SDS011;68121;52.404;5.318;2024-02-21T11:59:08;5.40;;;3.00;;
78778;SDS011;68121;52.404;5.318;2024-02-21T12:01:34;5.20;;;2.80;;
78778;SDS011;68121;52.404;5.318;2024-02-21T12:04:00;5.03;;;3.10;;
78778;SDS011;68121;52.404;5.318;2024-02-21T12:06:26;6.93;;;3.50;;
78778;SDS011;68121;52.404;5.318;2024-02-21T12:08:57;6.30;;;3.80;;
78778;SDS011;68121;52.404;5.318;2024-02-21T12:11:23;4.05;;;2.28;;
78778;SDS011;68121;52.404;5.318;2024-02-21T12:14:02;6.30;;;3.40;;
78778;SDS011;68121;52.404;5.318;2024-02-21T12:16:30;6.75;;;3.10;;
78778;SDS011;68121;52.404;5.318;2024-02-21T12:18:58;6.13;;;2.65;;
78778;SDS011;68121;52.404;5.318;2024-02-21T12:21:34;4.38;;;2.50;;
78778;SDS011;68121;52.404;5.318;2024-02-21T12:24:21;7.15;;;2.92;;
78778;SDS011;68121;52.404;5.318;2024-02-21T12:26:51;5.90;;;3.30;;
78778;SDS011;68121;52.404;5.318;2024-02-21T12:29:18;5.45;;;3.10;;
78778;SDS011;68121;52.404;5.318;2024-02-21T12:31:47;5.13;;;2.92;;
78778;SDS011;68121;52.404;5.318;2024-02-21T12:34:14;7.65;;;3.83;;
78778;SDS011;68121;52.404;5.318;2024-02-21T12:36:41;7.07;;;3.80;;
78778;SDS011;68121;52.404;5.318;2024-02-21T12:39:09;5.80;;;3.65;;
78778;SDS011;68121;52.404;5.318;2024-02-21T12:41:36;8.35;;;3.47;;
78778;SDS011;68121;52.404;5.318;2024-02-21T12:44:07;5.57;;;3.47;;
78778;SDS011;68121;52.404;5.318;2024-02-21T12:46:33;5.25;;;3.75;;
78778;SDS011;68121;52.404;5.318;2024-02-21T12:49:03;7.30;;;3.67;;
78778;SDS011;68121;52.404;5.318;2024-02-21T12:51:32;7.82;;;3.38;;
78778;SDS011;68121;52.404;5.318;2024-02-21T12:53:59;6.05;;;3.83;;
78778;SDS011;68121;52.404;5.318;2024-02-21T12:56:25;5.13;;;3.08;;
78778;SDS011;68121;52.404;5.318;2024-02-21T12:58:56;5.03;;;3.83;;
78778;SDS011;68121;52.404;5.318;2024-02-21T13:01:23;6.35;;;3.60;;
78778;SDS011;68121;52.404;5.318;2024-02-21T13:03:49;11.07;;;3.58;;
78778;SDS011;68121;52.404;5.318;2024-02-21T13:06:15;7.85;;;3.63;;
78778;SDS011;68121;52.404;5.318;2024-02-21T13:08:41;6.18;;;3.20;;
78778;SDS011;68121;52.404;5.318;2024-02-21T13:11:08;6.32;;;4.00;;
78778;SDS011;68121;52.404;5.318;2024-02-21T13:13:34;6.30;;;3.15;;
78778;SDS011;68121;52.404;5.318;2024-02-21T13:16:00;7.70;;;3.08;;
78778;SDS011;68121;52.404;5.318;2024-02-21T13:18:27;4.20;;;2.50;;
78778;SDS011;68121;52.404;5.318;2024-02-21T13:20:53;6.03;;;3.00;;
78778;SDS011;68121;52.404;5.318;2024-02-21T13:23:19;4.80;;;3.00;;
78778;SDS011;68121;52.404;5.318;2024-02-21T13:25:48;5.22;;;3.25;;
78778;SDS011;68121;52.404;5.318;2024-02-21T13:28:14;5.95;;;2.97;;
78778;SDS011;68121;52.404;5.318;2024-02-21T13:30:42;4.53;;;3.25;;
78778;SDS011;68121;52.404;5.318;2024-02-21T13:33:08;7.28;;;3.72;;
78778;SDS011;68121;52.404;5.318;2024-02-21T13:35:35;4.10;;;2.97;;
78778;SDS011;68121;52.404;5.318;2024-02-21T13:38:02;9.65;;;3.60;;
78778;SDS011;68121;52.404;5.318;2024-02-21T13:40:29;5.07;;;3.25;;
78778;SDS011;68121;52.404;5.318;2024-02-21T13:42:55;6.95;;;2.97;;
78778;SDS011;68121;52.404;5.318;2024-02-21T13:45:21;6.28;;;3.40;;
78778;SDS011;68121;52.404;5.318;2024-02-21T13:47:47;5.57;;;3.20;;
78778;SDS011;68121;52.404;5.318;2024-02-21T13:50:13;6.85;;;3.00;;
78778;SDS011;68121;52.404;5.318;2024-02-21T13:52:40;3.40;;;2.35;;
78778;SDS011;68121;52.404;5.318;2024-02-21T13:55:06;5.63;;;3.13;;
78778;SDS011;68121;52.404;5.318;2024-02-21T13:57:35;4.47;;;3.47;;
78778;SDS011;68121;52.404;5.318;2024-02-21T14:00:05;3.53;;;2.45;;
78778;SDS011;68121;52.404;5.318;2024-02-21T14:02:36;3.03;;;2.25;;
78778;SDS011;68121;52.404;5.318;2024-02-21T14:05:03;6.38;;;2.55;;
78778;SDS011;68121;52.404;5.318;2024-02-21T14:07:31;3.78;;;2.80;;
78778;SDS011;68121;52.404;5.318;2024-02-21T14:10:00;6.18;;;2.92;;
78778;SDS011;68121;52.404;5.318;2024-02-21T14:12:26;5.78;;;2.78;;
78778;SDS011;68121;52.404;5.318;2024-02-21T14:14:52;3.58;;;2.88;;
78778;SDS011;68121;52.404;5.318;2024-02-21T14:17:18;7.22;;;2.55;;
78778;SDS011;68121;52.404;5.318;2024-02-21T14:19:45;5.30;;;2.42;;
78778;SDS011;68121;52.404;5.318;2024-02-21T14:22:11;2.42;;;1.42;;
78778;SDS011;68121;52.404;5.318;2024-02-21T14:24:37;7.57;;;3.13;;
78778;SDS011;68121;52.404;5.318;2024-02-21T14:27:03;3.75;;;1.98;;
78778;SDS011;68121;52.404;5.318;2024-02-21T14:29:30;5.40;;;2.30;;
78778;SDS011;68121;52.404;5.318;2024-02-21T14:31:56;3.85;;;2.45;;
78778;SDS011;68121;52.404;5.318;2024-02-21T14:34:22;5.55;;;2.92;;
78778;SDS011;68121;52.404;5.318;2024-02-21T14:36:48;6.75;;;3.22;;
78778;SDS011;68121;52.404;5.318;2024-02-21T14:39:14;7.78;;;2.75;;
78778;SDS011;68121;52.404;5.318;2024-02-21T14:41:40;9.20;;;2.65;;
78778;SDS011;68121;52.404;5.318;2024-02-21T14:44:06;7.63;;;3.20;;
78778;SDS011;68121;52.404;5.318;2024-02-21T14:46:35;4.10;;;2.08;;
78778;SDS011;68121;52.404;5.318;2024-02-21T14:49:03;5.20;;;2.30;;
78778;SDS011;68121;52.404;5.318;2024-02-21T14:51:29;5.55;;;2.78;;
78778;SDS011;68121;52.404;5.318;2024-02-21T14:53:56;7.13;;;2.25;;